createdAt,value
2019-02-19T00:00:42.392Z,23.03
2019-02-19T00:03:12.043Z,21.10
2019-02-19T00:05:41.680Z,23.07
2019-02-19T00:08:10.953Z,25.07
2019-02-19T00:10:40.559Z,22.60
2019-02-19T00:13:09.858Z,23.10
2019-02-19T00:15:39.117Z,21.57
2019-02-19T00:18:11.220Z,21.80
2019-02-19T00:20:40.457Z,19.87
2019-02-19T00:23:09.720Z,20.90
2019-02-19T00:25:38.959Z,18.83
2019-02-19T00:28:09.073Z,19.03
2019-02-19T00:30:38.303Z,18.53
2019-02-19T00:33:07.577Z,20.17
2019-02-19T00:35:36.851Z,19.03
2019-02-19T00:38:06.846Z,18.67
2019-02-19T00:40:36.293Z,22.63
2019-02-19T00:43:05.562Z,19.70
2019-02-19T00:45:35.829Z,19.37
2019-02-19T00:48:05.148Z,20.50
2019-02-19T00:50:34.489Z,18.20
2019-02-19T00:53:04.294Z,21.50
2019-02-19T00:55:33.555Z,20.70
2019-02-19T00:58:05.527Z,22.33
2019-02-19T01:00:34.804Z,22.93
2019-02-19T01:03:04.378Z,17.80
2019-02-19T01:05:35.104Z,23.20
2019-02-19T01:08:07.187Z,19.73
2019-02-19T01:10:37.230Z,20.90
2019-02-19T01:13:06.787Z,19.17
2019-02-19T01:15:37.063Z,21.37
2019-02-19T01:18:07.122Z,19.90
2019-02-19T01:20:36.352Z,23.03
2019-02-19T01:23:07.843Z,20.97
2019-02-19T01:25:37.759Z,18.73
2019-02-19T01:28:08.239Z,19.00
2019-02-19T01:30:37.470Z,22.10
2019-02-19T01:33:09.087Z,19.33
2019-02-19T01:35:38.315Z,20.97
2019-02-19T01:38:07.737Z,18.27
2019-02-19T01:40:37.217Z,17.73
2019-02-19T01:43:07.196Z,19.03
2019-02-19T01:45:39.109Z,20.33
2019-02-19T01:48:08.358Z,18.77
2019-02-19T01:50:37.601Z,19.23
2019-02-19T01:53:07.177Z,20.30
2019-02-19T01:55:38.061Z,19.83
2019-02-19T01:58:09.761Z,19.37
2019-02-19T02:00:39.030Z,20.67
2019-02-19T02:03:08.530Z,18.70
2019-02-19T02:05:39.570Z,20.60
2019-02-19T02:08:10.242Z,18.57
2019-02-19T02:10:39.911Z,17.67
2019-02-19T02:13:10.073Z,20.47
2019-02-19T02:15:42.708Z,20.20
2019-02-19T02:18:10.313Z,20.87
2019-02-19T02:20:43.559Z,19.00
2019-02-19T02:23:14.459Z,20.47
2019-02-19T02:25:43.724Z,19.53
2019-02-19T02:28:12.962Z,19.70
2019-02-19T02:30:44.725Z,21.83
2019-02-19T02:33:15.485Z,18.67
2019-02-19T02:35:45.338Z,20.00
2019-02-19T02:38:14.604Z,22.00
2019-02-19T02:40:43.903Z,19.60
2019-02-19T02:43:13.312Z,18.13
2019-02-19T02:45:52.423Z,19.80
2019-02-19T02:48:16.596Z,22.27
2019-02-19T02:50:47.570Z,20.67
2019-02-19T02:53:16.849Z,19.37
2019-02-19T02:55:49.849Z,22.53
2019-02-19T02:58:19.109Z,18.77
2019-02-19T03:00:48.392Z,19.90
2019-02-19T03:03:18.409Z,17.17
2019-02-19T03:06:24.718Z,19.20
2019-02-19T03:08:54.003Z,20.67
2019-02-19T03:11:23.247Z,19.07
2019-02-19T03:13:53.557Z,17.97
2019-02-19T03:16:24.906Z,16.80
2019-02-19T03:18:54.132Z,16.97
2019-02-19T03:21:26.344Z,15.50
2019-02-19T03:23:56.333Z,17.43
2019-02-19T03:26:28.602Z,18.00
2019-02-19T03:28:57.835Z,16.53
2019-02-19T03:31:27.169Z,16.37
2019-02-19T03:33:57.641Z,16.37
2019-02-19T03:36:26.877Z,17.63
2019-02-19T03:38:55.953Z,18.87
2019-02-19T03:41:25.184Z,18.73
2019-02-19T03:43:56.118Z,17.43
2019-02-19T03:46:27.763Z,20.03
2019-02-19T03:48:58.790Z,17.43
2019-02-19T03:51:29.589Z,15.20
2019-02-19T03:53:59.175Z,18.87
2019-02-19T03:56:28.443Z,21.17
2019-02-19T03:58:57.695Z,25.10
2019-02-19T04:01:28.527Z,19.90
2019-02-19T04:04:00.784Z,20.53
2019-02-19T04:06:30.063Z,21.83
2019-02-19T04:08:59.298Z,24.10
2019-02-19T04:11:30.680Z,20.03
2019-02-19T04:14:00.781Z,22.73
2019-02-19T04:16:30.911Z,20.87
2019-02-19T04:19:00.152Z,18.90
2019-02-19T04:21:33.397Z,23.50
2019-02-19T04:24:06.184Z,22.27
2019-02-19T04:26:36.559Z,19.93
2019-02-19T04:29:07.426Z,21.90
2019-02-19T04:31:36.993Z,22.17
2019-02-19T04:34:06.661Z,27.97
2019-02-19T04:36:36.686Z,24.73
2019-02-19T04:39:17.408Z,22.20
2019-02-19T04:41:48.730Z,19.83
2019-02-19T04:44:21.090Z,20.90
2019-02-19T04:46:50.582Z,21.43
2019-02-19T04:49:20.418Z,19.97
2019-02-19T04:51:51.427Z,19.57
2019-02-19T04:54:31.799Z,19.67
2019-02-19T04:57:01.321Z,18.17
2019-02-19T04:59:34.769Z,18.90
2019-02-19T05:02:05.863Z,16.67
2019-02-19T05:04:36.869Z,20.40
2019-02-19T05:07:10.318Z,18.23
2019-02-19T05:09:45.950Z,17.93
2019-02-19T05:12:16.671Z,18.07
2019-02-19T05:14:46.152Z,17.47
2019-02-19T05:17:16.396Z,18.90
2019-02-19T05:19:51.956Z,17.47
2019-02-19T05:22:32.998Z,19.37
2019-02-19T05:25:02.075Z,17.97
2019-02-19T05:27:32.524Z,17.13
2019-02-19T05:30:03.043Z,16.93
2019-02-19T05:32:32.647Z,19.07
2019-02-19T05:35:02.900Z,16.90
2019-02-19T05:37:32.207Z,15.23
2019-02-19T05:40:02.604Z,15.00
2019-02-19T05:42:31.906Z,15.73
2019-02-19T05:45:01.165Z,15.83
2019-02-19T05:47:32.427Z,16.40
2019-02-19T05:50:01.490Z,16.57
2019-02-19T05:52:32.893Z,15.60
2019-02-19T05:55:09.708Z,17.10
2019-02-19T05:57:41.782Z,16.20
2019-02-19T06:00:15.574Z,16.90
2019-02-19T06:02:47.089Z,18.43
2019-02-19T06:05:16.322Z,13.73
2019-02-19T06:07:45.677Z,15.53
2019-02-19T06:10:15.394Z,19.33
2019-02-19T06:12:45.404Z,19.43
2019-02-19T06:15:15.755Z,20.87
2019-02-19T06:17:47.151Z,19.27
2019-02-19T06:20:17.144Z,19.03
2019-02-19T06:22:52.643Z,18.53
2019-02-19T06:25:22.695Z,15.57
2019-02-19T06:27:51.993Z,16.77
2019-02-19T06:30:22.446Z,17.33
2019-02-19T06:32:51.711Z,14.83
2019-02-19T06:35:24.474Z,18.63
2019-02-19T06:37:54.167Z,20.40
2019-02-19T06:40:25.994Z,19.47
2019-02-19T06:42:59.920Z,21.90
2019-02-19T06:45:29.203Z,24.03
2019-02-19T06:47:58.972Z,24.97
2019-02-19T06:50:28.205Z,29.43
2019-02-19T06:52:58.369Z,26.50
2019-02-19T06:55:27.950Z,25.80
2019-02-19T06:57:58.293Z,20.77
2019-02-19T07:00:27.382Z,20.87
2019-02-19T07:03:15.890Z,16.13
2019-02-19T07:05:49.236Z,17.87
2019-02-19T07:08:19.343Z,19.03
2019-02-19T07:10:51.448Z,23.50
2019-02-19T07:13:20.909Z,19.80
2019-02-19T07:15:52.130Z,21.30
2019-02-19T07:18:23.485Z,18.97
2019-02-19T07:20:53.000Z,19.67
2019-02-19T07:23:22.323Z,17.77
2019-02-19T07:25:55.774Z,17.07
2019-02-19T07:28:25.293Z,18.93
2019-02-19T07:30:55.735Z,18.97
2019-02-19T07:33:28.944Z,17.10
2019-02-19T07:36:00.677Z,16.27
2019-02-19T07:38:34.472Z,16.23
2019-02-19T07:41:06.960Z,18.97
2019-02-19T07:43:38.860Z,19.33
2019-02-19T07:46:10.869Z,17.77
2019-02-19T07:48:47.670Z,17.00
2019-02-19T07:51:21.185Z,20.20
2019-02-19T07:53:52.562Z,19.37
2019-02-19T07:56:24.669Z,21.73
2019-02-19T07:58:54.329Z,22.07
2019-02-19T08:01:23.854Z,20.00
2019-02-19T08:03:56.630Z,18.00
2019-02-19T08:06:28.095Z,19.13
2019-02-19T08:08:58.223Z,19.77
2019-02-19T08:11:27.432Z,18.93
2019-02-19T08:13:57.657Z,18.27
2019-02-19T08:16:29.317Z,19.70
2019-02-19T08:19:00.448Z,18.87
2019-02-19T08:21:30.019Z,19.80
2019-02-19T08:24:03.757Z,19.43
2019-02-19T08:26:34.656Z,18.17
2019-02-19T08:29:13.919Z,19.07
2019-02-19T08:31:42.335Z,19.30
2019-02-19T08:34:12.687Z,20.30
2019-02-19T08:36:43.389Z,20.20
2019-02-19T08:39:14.803Z,19.80
2019-02-19T08:41:44.054Z,20.67
2019-02-19T08:44:14.158Z,21.50
2019-02-19T08:46:45.390Z,19.30
2019-02-19T08:49:16.914Z,22.13
2019-02-19T08:51:55.834Z,20.23
2019-02-19T08:54:23.478Z,21.37
2019-02-19T08:56:54.917Z,22.10
2019-02-19T09:02:52.478Z,22.33
2019-02-19T09:05:21.703Z,23.63
2019-02-19T09:07:52.817Z,23.03
2019-02-19T09:10:22.354Z,21.57
2019-02-19T09:12:54.187Z,20.63
2019-02-19T09:15:23.425Z,22.63
2019-02-19T09:17:52.686Z,24.33
2019-02-19T09:20:23.806Z,24.27
2019-02-19T09:22:53.089Z,22.43
2019-02-19T09:25:24.076Z,23.73
2019-02-19T09:27:53.858Z,23.00
2019-02-19T09:30:23.621Z,24.43
2019-02-19T09:32:55.095Z,24.53
2019-02-19T09:35:28.870Z,23.63
2019-02-19T09:37:58.134Z,22.97
2019-02-19T09:40:27.374Z,22.23
2019-02-19T09:42:58.299Z,22.27
2019-02-19T09:45:29.577Z,22.67
2019-02-19T09:48:01.274Z,21.57
2019-02-19T09:50:31.260Z,22.57
2019-02-19T09:53:04.234Z,22.37
2019-02-19T09:55:33.508Z,22.27
2019-02-19T09:58:05.795Z,21.97
2019-02-19T10:00:38.265Z,22.17
2019-02-19T10:03:08.279Z,21.87
2019-02-19T10:05:37.544Z,22.60
2019-02-19T10:08:06.783Z,22.57
2019-02-19T10:10:36.043Z,24.10
2019-02-19T10:13:08.679Z,23.80
2019-02-19T10:15:38.350Z,26.00
2019-02-19T10:18:10.481Z,24.07
2019-02-19T10:20:40.305Z,24.70
2019-02-19T10:23:14.705Z,24.40
2019-02-19T10:25:44.778Z,24.17
2019-02-19T10:28:16.945Z,23.97
2019-02-19T10:30:48.578Z,27.87
2019-02-19T10:33:17.798Z,25.93
2019-02-19T10:35:49.987Z,26.60
2019-02-19T10:38:30.003Z,26.33
2019-02-19T10:41:02.912Z,29.27
2019-02-19T10:43:35.701Z,24.93
2019-02-19T10:46:07.503Z,25.73
2019-02-19T10:48:38.303Z,25.40
2019-02-19T10:51:07.863Z,27.00
2019-02-19T10:53:37.101Z,25.70
2019-02-19T10:56:07.988Z,25.50
2019-02-19T10:58:40.128Z,26.37
2019-02-19T11:01:11.718Z,25.10
2019-02-19T11:03:41.280Z,25.47
2019-02-19T11:06:11.725Z,24.40
2019-02-19T11:08:40.961Z,24.20
2019-02-19T11:11:10.862Z,24.83
2019-02-19T11:13:40.094Z,25.93
2019-02-19T11:19:38.119Z,23.67
2019-02-19T11:22:10.706Z,25.30
2019-02-19T11:24:40.719Z,25.10
2019-02-19T11:34:38.121Z,24.00
2019-02-19T11:37:07.398Z,23.90
2019-02-19T11:39:36.858Z,22.83
2019-02-19T11:42:06.136Z,22.43
2019-02-19T11:44:35.328Z,23.93
2019-02-19T11:47:04.593Z,25.40
2019-02-19T11:49:33.804Z,21.13
2019-02-19T11:52:03.445Z,21.57
2019-02-19T11:54:34.978Z,21.57
2019-02-19T11:57:04.228Z,21.30
2019-02-19T11:59:33.455Z,21.03
2019-02-19T12:02:04.661Z,20.87
2019-02-19T12:04:34.183Z,21.70
2019-02-19T12:07:04.934Z,21.07
2019-02-19T12:09:36.552Z,21.00
2019-02-19T12:12:08.195Z,21.53
2019-02-19T12:14:38.867Z,20.83
2019-02-19T12:17:09.018Z,20.03
2019-02-19T12:19:38.248Z,20.00
2019-02-19T12:22:08.535Z,21.13
2019-02-19T12:24:37.795Z,20.90
2019-02-19T12:27:08.922Z,20.93
2019-02-19T12:29:40.981Z,23.00
2019-02-19T12:32:10.529Z,20.37
2019-02-19T12:34:40.855Z,20.23
2019-02-19T12:37:11.258Z,19.83
2019-02-19T12:39:42.521Z,19.70
2019-02-19T12:42:11.738Z,19.83
2019-02-19T12:44:40.987Z,20.63
2019-02-19T12:47:14.174Z,18.47
2019-02-19T12:49:43.724Z,19.63
2019-02-19T12:52:14.569Z,19.53
2019-02-19T12:54:43.818Z,19.20
2019-02-19T12:57:14.688Z,19.73
2019-02-19T12:59:43.996Z,20.80
2019-02-19T13:02:13.235Z,20.80
2019-02-19T13:04:42.484Z,20.27
2019-02-19T13:07:13.145Z,19.73
2019-02-19T13:09:42.452Z,19.93
2019-02-19T13:12:14.484Z,19.33
2019-02-19T13:14:46.017Z,17.40
2019-02-19T13:17:15.226Z,17.67
2019-02-19T13:19:44.472Z,19.47
2019-02-19T13:22:14.705Z,17.97
2019-02-19T13:24:43.952Z,18.10
2019-02-19T13:27:15.182Z,18.43
2019-02-19T13:29:44.467Z,18.30
2019-02-19T13:32:13.683Z,17.70
2019-02-19T13:34:44.071Z,17.63
2019-02-19T13:37:13.275Z,18.67
2019-02-19T13:39:42.547Z,19.10
2019-02-19T13:42:12.919Z,18.43
2019-02-19T13:44:43.777Z,19.90
2019-02-19T13:47:12.990Z,19.83
2019-02-19T13:49:42.637Z,17.93
2019-02-19T13:52:22.735Z,19.00
2019-02-19T13:54:56.759Z,19.47
2019-02-19T13:57:26.016Z,19.23
2019-02-19T13:59:55.324Z,18.70
2019-02-19T14:02:25.616Z,21.00
2019-02-19T14:04:54.867Z,21.57
2019-02-19T14:07:25.588Z,20.80
2019-02-19T14:09:54.849Z,19.83
2019-02-19T14:12:24.401Z,22.77
2019-02-19T14:14:58.481Z,19.93
2019-02-19T14:17:28.861Z,21.03
2019-02-19T14:20:17.057Z,20.97
2019-02-19T14:23:10.823Z,21.07
2019-02-19T14:26:01.799Z,20.57
2019-02-19T14:29:03.004Z,20.13
2019-02-19T14:32:06.290Z,22.10
2019-02-19T14:34:55.684Z,19.50
2019-02-19T14:37:47.865Z,20.90
2019-02-19T14:40:42.082Z,22.40
2019-02-19T14:43:21.499Z,22.27
2019-02-19T14:46:13.383Z,21.33
2019-02-19T14:48:57.280Z,21.43
2019-02-19T14:51:46.298Z,21.57
2019-02-19T14:54:33.058Z,22.80
2019-02-19T14:57:18.752Z,22.90
2019-02-19T15:00:06.967Z,26.93
2019-02-19T15:02:57.697Z,25.97
2019-02-19T15:05:47.989Z,22.00
2019-02-19T15:08:40.454Z,22.90
2019-02-19T15:11:34.402Z,32.43
2019-02-19T15:14:34.870Z,46.47
2019-02-19T15:17:23.062Z,35.50
2019-02-19T15:20:11.241Z,28.57
2019-02-19T15:22:58.072Z,27.40
2019-02-19T15:25:44.986Z,22.53
2019-02-19T15:28:45.895Z,21.67
2019-02-19T15:31:36.758Z,20.93
2019-02-19T15:34:24.970Z,21.73
2019-02-19T15:37:15.951Z,20.50
2019-02-19T15:40:10.150Z,20.53
2019-02-19T15:42:53.947Z,22.90
2019-02-19T15:45:32.777Z,19.37
2019-02-19T15:48:10.803Z,20.47
2019-02-19T15:50:57.750Z,19.30
2019-02-19T15:54:04.098Z,23.80
2019-02-19T15:56:52.107Z,21.57
2019-02-19T15:59:39.783Z,21.83
2019-02-19T16:02:33.767Z,23.07
2019-02-19T16:05:37.554Z,24.20
2019-02-19T16:08:25.763Z,26.63
2019-02-19T16:11:05.443Z,22.97
2019-02-19T16:13:45.984Z,24.27
2019-02-19T16:16:31.914Z,23.20
2019-02-19T16:19:23.148Z,24.23
2019-02-19T16:22:14.448Z,25.43
2019-02-19T16:25:19.364Z,21.27
2019-02-19T16:28:07.817Z,22.53
2019-02-19T16:31:14.077Z,23.93
2019-02-19T16:33:50.952Z,24.77
2019-02-19T16:36:32.810Z,23.87
2019-02-19T16:39:19.656Z,26.77
